M/V Patriot — WDG2884 — position and weather

sailwx.info

Track history (hours):
 
Tides and Currents Weather Stations Pressure Air Temp Water Temp Dewpoint Dewpoint Depression Visibility Wind Speed Wind Dir Waves Ship Positions

M/V Patriot

Owner: Enterprise Marine Services, LLC, San Antonio, TX. More information available from US FCC via Universal Licensing System and Coast Guard Vessel Documentation Center.

Last reported at 2018-Jan-03 00:19 UTC. Time now 2018-Jan-22 16:03 UTC.
Position N 32°40' W 091°08'.
Warning: this ship's position is 19 days out of date.

Length 33 m; draft 2.9 m.

Type: Tug. MMSI: 367520270.

Date/timePositionNaut miles runAvg speedWind from/ knotsBaromVisibWave heightAir tempDewpointWater temp
2018-Jan-03 00:19N 32°40' W 091°08'1 3.6
2018-Jan-02 23:54N 32°39' W 091°09'1 3.5
2018-Jan-02 23:30N 32°37' W 091°09'2 3.5
2018-Jan-02 23:00N 32°36' W 091°08'2 3.8
2018-Jan-02 22:30N 32°34' W 091°07'2 3.8
2018-Jan-02 22:00N 32°33' W 091°06'2 4.0
2018-Jan-02 21:29N 32°31' W 091°07'2 4.8
2018-Jan-02 21:01N 32°28' W 091°07'2 3.9
2018-Jan-02 20:30N 32°27' W 091°05'2 4.0
2018-Jan-02 20:00N 32°26' W 091°03'2 4.0
2018-Jan-02 19:30N 32°25' W 091°01'2 3.8
2018-Jan-02 19:00N 32°24' W 090°59'2 3.2
2018-Jan-02 18:31N 32°22' W 091°00'2 3.6
2018-Jan-02 18:00N 32°21' W 090°59'2 4.3
2018-Jan-02 17:30N 32°21' W 090°56'2 3.9
2018-Jan-02 17:01N 32°20' W 090°54'2 3.8
2018-Jan-02 16:30N 32°18' W 090°55'1 2.7
2018-Jan-02 16:01N 32°18' W 090°56'1 1.1
2018-Jan-02 15:30N 32°17' W 090°56'2 3.1
2018-Jan-02 15:00N 32°16' W 090°58'2 3.7
2018-Jan-02 14:30N 32°15' W 090°59'2 3.4
2018-Jan-02 14:00N 32°13' W 090°59'2 4.1
2018-Jan-02 13:31N 32°11' W 090°60'2 3.9
2018-Jan-02 13:00N 32°09' W 091°00'2 3.6
2018-Jan-02 12:30N 32°07' W 091°01'2 3.7
2018-Jan-02 12:00N 32°08' W 091°03'2 3.8
2018-Jan-02 11:30N 32°08' W 091°06'2 3.2
2018-Jan-02 11:00N 32°06' W 091°06'3 4.1
2018-Jan-02 10:17N 32°04' W 091°04'1 2.2
2018-Jan-02 10:00N 32°04' W 091°03'2 3.8
2018-Jan-02 09:31N 32°02' W 091°04'7 4.1
2018-Jan-02 07:55N 31°59' W 091°11'  
2017-Dec-30 11:36N 29°33' W 090°24'1 4.8
2017-Dec-30 11:29N 29°33' W 090°24'3 5.7
2017-Dec-30 11:00N 29°33' W 090°27'3 5.7
2017-Dec-30 10:31N 29°34' W 090°31'3 5.5
2017-Dec-30 10:00N 29°34' W 090°34'3 5.2
2017-Dec-30 09:30N 29°35' W 090°37'3 5.4
2017-Dec-30 09:00N 29°36' W 090°39'2 5.0
2017-Dec-30 08:30N 29°37' W 090°42'2 4.3
2017-Dec-30 08:00N 29°35' W 090°43'1 2.3
2017-Dec-30 07:30N 29°34' W 090°43'0 0.0
2017-Dec-30 07:01N 29°34' W 090°43'0 0.0
2017-Dec-30 06:30N 29°34' W 090°43'0 0.0
2017-Dec-30 06:00N 29°34' W 090°43'0 0.1
2017-Dec-30 05:31N 29°34' W 090°43'0 0.0
2017-Dec-30 05:00N 29°34' W 090°43'0 0.0
2017-Dec-30 04:30N 29°34' W 090°43'0 0.0
2017-Dec-30 04:01N 29°34' W 090°43'0 0.0
2017-Dec-30 03:30N 29°34' W 090°43'0 0.0
2017-Dec-30 03:01N 29°34' W 090°43'0 0.0
2017-Dec-30 02:30N 29°34' W 090°43'0 0.2
2017-Dec-30 02:00N 29°34' W 090°43'0 0.1
2017-Dec-30 01:30N 29°34' W 090°43'0 0.0
2017-Dec-30 01:01N 29°34' W 090°43'0 0.2
2017-Dec-30 00:31N 29°34' W 090°43'1 1.1
2017-Dec-30 00:01N 29°34' W 090°43'2 4.8
2017-Dec-29 23:30N 29°37' W 090°42'2 4.8
2017-Dec-29 23:00N 29°36' W 090°40'0 0.0
2017-Dec-29 22:30N 29°36' W 090°40'0 0.0
2017-Dec-29 22:00N 29°36' W 090°40'0 0.0
2017-Dec-29 21:30N 29°36' W 090°40'0 0.0
2017-Dec-29 21:00N 29°36' W 090°40'0 0.0
2017-Dec-29 20:30N 29°36' W 090°40'2 4.2
2017-Dec-29 20:01N 29°37' W 090°42'3 5.5
2017-Dec-29 19:30N 29°34' W 090°43'1 1.0
2017-Dec-29 19:00N 29°34' W 090°43'0 0.0
2017-Dec-29 18:30N 29°34' W 090°43'0 0.0
2017-Dec-29 18:00N 29°34' W 090°43'0 0.0
2017-Dec-29 17:31N 29°34' W 090°43'0 0.0
2017-Dec-29 17:00N 29°34' W 090°43'0 0.0
2017-Dec-29 16:31N 29°34' W 090°43'0 0.0
2017-Dec-29 16:00N 29°34' W 090°43'0 0.1
2017-Dec-29 15:30N 29°34' W 090°43'0 0.1
2017-Dec-29 15:01N 29°34' W 090°43'0 0.2
2017-Dec-29 14:30N 29°34' W 090°43'0 0.1
2017-Dec-29 14:01N 29°34' W 090°43'0 0.0
2017-Dec-29 13:30N 29°34' W 090°43'0 0.0
2017-Dec-29 13:00N 29°34' W 090°43'0 0.0
2017-Dec-29 12:30N 29°34' W 090°43'0 0.0
2017-Dec-29 12:00N 29°34' W 090°43'0 0.0
2017-Dec-29 11:30N 29°34' W 090°43'0 0.0
2017-Dec-29 11:00N 29°34' W 090°43'0 0.0
2017-Dec-29 10:30N 29°34' W 090°43'0 0.0
2017-Dec-29 10:00N 29°34' W 090°43'0 0.0
2017-Dec-29 09:30N 29°34' W 090°43'0 0.3
2017-Dec-29 09:00N 29°34' W 090°43'1 2.3
2017-Dec-29 08:30N 29°34' W 090°44'1 1.2
2017-Dec-29 08:00N 29°34' W 090°45'2 4.1
2017-Dec-29 07:31N 29°32' W 090°46'62 4.8
2017-Dec-28 18:31N 29°51' W 091°54'0 6.1
2017-Dec-28 18:28N 29°51' W 091°55'3 6.2
2017-Dec-28 17:59N 29°50' W 091°58'3 6.1
2017-Dec-28 17:30N 29°49' W 092°01'3 5.3
2017-Dec-28 17:00N 29°48' W 092°04'3 5.5
2017-Dec-28 16:31N 29°47' W 092°07'3 5.5
2017-Dec-28 16:01N 29°47' W 092°10'2 4.6
2017-Dec-28 15:30N 29°47' W 092°13'2 4.7
2017-Dec-28 15:00N 29°48' W 092°15'2 4.4
2017-Dec-28 14:31N 29°49' W 092°17'2 3.2
2017-Dec-28 14:00N 29°50' W 092°19'0 0.0
2017-Dec-28 13:31N 29°50' W 092°19'0 0.0
2017-Dec-28 13:01N 29°50' W 092°19'0 0.0
2017-Dec-28 12:31N 29°50' W 092°19'0 0.0
2017-Dec-28 12:00N 29°50' W 092°19'0 0.0
2017-Dec-28 11:30N 29°50' W 092°19'0 0.0
2017-Dec-28 11:00N 29°50' W 092°19'0 0.0
2017-Dec-28 10:31N 29°50' W 092°19'0 0.0
2017-Dec-28 10:00N 29°50' W 092°19'0 0.0
2017-Dec-28 09:30N 29°50' W 092°19'0 0.0
2017-Dec-28 09:00N 29°50' W 092°19'0 0.0
2017-Dec-28 08:30N 29°50' W 092°19'0 0.0
2017-Dec-28 08:01N 29°50' W 092°19'0 0.0
2017-Dec-28 07:30N 29°50' W 092°19'0 0.0
2017-Dec-28 07:00N 29°50' W 092°19'0 0.0
2017-Dec-28 06:31N 29°50' W 092°19'0 0.0
2017-Dec-28 06:00N 29°50' W 092°19'0 0.1
2017-Dec-28 05:31N 29°50' W 092°19'0 0.1
2017-Dec-28 05:01N 29°50' W 092°19'0 0.0
2017-Dec-28 04:30N 29°50' W 092°19'0 0.0
2017-Dec-28 04:00N 29°50' W 092°19'0 0.0
2017-Dec-28 03:31N 29°50' W 092°19'0 0.0
2017-Dec-28 03:00N 29°50' W 092°19'0 0.0
2017-Dec-28 02:30N 29°50' W 092°19'0 0.0
2017-Dec-28 02:01N 29°50' W 092°19'0 0.0
2017-Dec-28 01:31N 29°50' W 092°19'0 0.0
2017-Dec-28 01:01N 29°50' W 092°19'0 0.2
2017-Dec-28 00:31N 29°50' W 092°19'0 0.0
2017-Dec-28 00:00N 29°50' W 092°19'0 0.1
2017-Dec-27 23:31N 29°50' W 092°19'0 0.0
2017-Dec-27 23:01N 29°50' W 092°19'0 0.0
2017-Dec-27 22:30N 29°50' W 092°19'0 0.0
2017-Dec-27 22:00N 29°50' W 092°19'0 0.0
2017-Dec-27 21:31N 29°50' W 092°19'0 0.0
2017-Dec-27 21:00N 29°50' W 092°19'0 0.0
2017-Dec-27 20:31N 29°50' W 092°19'0 0.0
2017-Dec-27 20:00N 29°50' W 092°19'0 0.0
2017-Dec-27 19:30N 29°50' W 092°19'0 0.0
2017-Dec-27 19:00N 29°50' W 092°19'0 0.0
2017-Dec-27 18:30N 29°50' W 092°19'0 0.0
2017-Dec-27 18:00N 29°50' W 092°19'0 0.0
2017-Dec-27 17:30N 29°50' W 092°19'0 0.1
2017-Dec-27 17:01N 29°50' W 092°19'0 0.0
2017-Dec-27 16:30N 29°50' W 092°19'0 0.0
2017-Dec-27 16:01N 29°50' W 092°19'0 0.0
2017-Dec-27 15:30N 29°50' W 092°19'0 0.0
2017-Dec-27 15:00N 29°50' W 092°19'0 0.0
2017-Dec-27 14:31N 29°50' W 092°19'0 0.0
2017-Dec-27 14:00N 29°50' W 092°19'0 0.0
2017-Dec-27 13:30N 29°50' W 092°19'0 0.0
2017-Dec-27 13:00N 29°50' W 092°19'0 0.0
2017-Dec-27 12:31N 29°50' W 092°19'0 0.0
2017-Dec-27 12:00N 29°50' W 092°19'0 0.0
2017-Dec-27 11:30N 29°50' W 092°19'0 0.0
2017-Dec-27 11:00N 29°50' W 092°19'0 0.0
2017-Dec-27 10:30N 29°50' W 092°19'0 0.0
2017-Dec-27 10:01N 29°50' W 092°19'0 0.0
2017-Dec-27 09:30N 29°50' W 092°19'0 0.0
2017-Dec-27 09:01N 29°50' W 092°19'0 0.0
2017-Dec-27 08:31N 29°50' W 092°19'0 0.0
2017-Dec-27 08:00N 29°50' W 092°19'0 0.0
2017-Dec-27 07:30N 29°50' W 092°19'0 0.1
2017-Dec-27 07:01N 29°50' W 092°19'2 4.3
2017-Dec-27 06:31N 29°51' W 092°21'38 5.5
2017-Dec-26 23:35N 29°56' W 093°05'1 6.0
2017-Dec-26 23:29N 29°56' W 093°05'3 5.4
2017-Dec-26 23:01N 29°56' W 093°08'3 5.1
2017-Dec-26 22:30N 29°57' W 093°11'3 6.0
2017-Dec-26 22:00N 29°60' W 093°13'3 5.3
2017-Dec-26 21:30N 30°02' W 093°15'2 4.8
2017-Dec-26 21:00N 30°04' W 093°16'2 3.6
2017-Dec-26 20:30N 30°05' W 093°18'1 1.1
2017-Dec-26 20:00N 30°06' W 093°18'1 1.6
2017-Dec-26 19:31N 30°06' W 093°19'0 0.0
2017-Dec-26 19:00N 30°06' W 093°19'0 0.1
2017-Dec-26 18:30N 30°06' W 093°19'1 2.0
2017-Dec-26 18:00N 30°06' W 093°19'3 5.3
2017-Dec-26 17:31N 30°04' W 093°21'3 5.6
2017-Dec-26 17:00N 30°04' W 093°25'3 5.8
2017-Dec-26 16:31N 30°04' W 093°28'3 6.0
2017-Dec-26 16:01N 30°04' W 093°31'3 6.0
2017-Dec-26 15:30N 30°04' W 093°35'3 5.8
2017-Dec-26 15:00N 30°04' W 093°38'3 6.0
2017-Dec-26 14:29N 30°04' W 093°42'70 5.1
2017-Dec-26 00:40N 29°28' W 094°51'2 9.5
2017-Dec-26 00:30N 29°30' W 094°52'4 8.9
2017-Dec-26 00:00N 29°33' W 094°55'5 9.1
2017-Dec-25 23:30N 29°37' W 094°58'5 9.2
2017-Dec-25 23:00N 29°42' W 094°60'4 8.0
2017-Dec-25 22:30N 29°44' W 095°03'3 0.8
2017-Dec-25 18:59N 29°47' W 095°05'3 6.4
2017-Dec-25 18:30N 29°44' W 095°03'4 8.9
2017-Dec-25 18:00N 29°41' W 094°59'4 8.8
2017-Dec-25 17:30N 29°37' W 094°57'5 9.9
2017-Dec-25 16:58N 29°33' W 094°54'  
Track history (hours):
 
Tides and Currents Weather Stations Pressure Air Temp Water Temp Dewpoint Dewpoint Depression Visibility Wind Speed Wind Dir Waves Ship Positions

M/V Patriot

Owner: Enterprise Marine Services, LLC, San Antonio, TX. More information available from US FCC via Universal Licensing System and Coast Guard Vessel Documentation Center.

Last reported at 2018-Jan-03 00:19 UTC. Time now 2018-Jan-22 16:03 UTC.
Position N 32°40' W 091°08'.
Warning: this ship's position is 19 days out of date.

Length 33 m; draft 2.9 m.

Type: Tug. MMSI: 367520270.

Date/timePositionNaut miles runAvg speedWind from/ knotsBaromVisibWave heightAir tempDewpointWater temp
2018-Jan-03 00:19N 32°40' W 091°08'1 3.6
2018-Jan-02 23:54N 32°39' W 091°09'1 3.5
2018-Jan-02 23:30N 32°37' W 091°09'2 3.5
2018-Jan-02 23:00N 32°36' W 091°08'2 3.8
2018-Jan-02 22:30N 32°34' W 091°07'2 3.8
2018-Jan-02 22:00N 32°33' W 091°06'2 4.0
2018-Jan-02 21:29N 32°31' W 091°07'2 4.8
2018-Jan-02 21:01N 32°28' W 091°07'2 3.9
2018-Jan-02 20:30N 32°27' W 091°05'2 4.0
2018-Jan-02 20:00N 32°26' W 091°03'2 4.0
2018-Jan-02 19:30N 32°25' W 091°01'2 3.8
2018-Jan-02 19:00N 32°24' W 090°59'2 3.2
2018-Jan-02 18:31N 32°22' W 091°00'2 3.6
2018-Jan-02 18:00N 32°21' W 090°59'2 4.3
2018-Jan-02 17:30N 32°21' W 090°56'2 3.9
2018-Jan-02 17:01N 32°20' W 090°54'2 3.8
2018-Jan-02 16:30N 32°18' W 090°55'1 2.7
2018-Jan-02 16:01N 32°18' W 090°56'1 1.1
2018-Jan-02 15:30N 32°17' W 090°56'2 3.1
2018-Jan-02 15:00N 32°16' W 090°58'2 3.7
2018-Jan-02 14:30N 32°15' W 090°59'2 3.4
2018-Jan-02 14:00N 32°13' W 090°59'2 4.1
2018-Jan-02 13:31N 32°11' W 090°60'2 3.9
2018-Jan-02 13:00N 32°09' W 091°00'2 3.6
2018-Jan-02 12:30N 32°07' W 091°01'2 3.7
2018-Jan-02 12:00N 32°08' W 091°03'2 3.8
2018-Jan-02 11:30N 32°08' W 091°06'2 3.2
2018-Jan-02 11:00N 32°06' W 091°06'3 4.1
2018-Jan-02 10:17N 32°04' W 091°04'1 2.2
2018-Jan-02 10:00N 32°04' W 091°03'2 3.8
2018-Jan-02 09:31N 32°02' W 091°04'7 4.1
2018-Jan-02 07:55N 31°59' W 091°11'  
2017-Dec-30 11:36N 29°33' W 090°24'1 4.8
2017-Dec-30 11:29N 29°33' W 090°24'3 5.7
2017-Dec-30 11:00N 29°33' W 090°27'3 5.7
2017-Dec-30 10:31N 29°34' W 090°31'3 5.5
2017-Dec-30 10:00N 29°34' W 090°34'3 5.2
2017-Dec-30 09:30N 29°35' W 090°37'3 5.4
2017-Dec-30 09:00N 29°36' W 090°39'2 5.0
2017-Dec-30 08:30N 29°37' W 090°42'2 4.3
2017-Dec-30 08:00N 29°35' W 090°43'1 2.3
2017-Dec-30 07:30N 29°34' W 090°43'0 0.0
2017-Dec-30 07:01N 29°34' W 090°43'0 0.0
2017-Dec-30 06:30N 29°34' W 090°43'0 0.0
2017-Dec-30 06:00N 29°34' W 090°43'0 0.1
2017-Dec-30 05:31N 29°34' W 090°43'0 0.0
2017-Dec-30 05:00N 29°34' W 090°43'0 0.0
2017-Dec-30 04:30N 29°34' W 090°43'0 0.0
2017-Dec-30 04:01N 29°34' W 090°43'0 0.0
2017-Dec-30 03:30N 29°34' W 090°43'0 0.0
2017-Dec-30 03:01N 29°34' W 090°43'0 0.0
2017-Dec-30 02:30N 29°34' W 090°43'0 0.2
2017-Dec-30 02:00N 29°34' W 090°43'0 0.1
2017-Dec-30 01:30N 29°34' W 090°43'0 0.0
2017-Dec-30 01:01N 29°34' W 090°43'0 0.2
2017-Dec-30 00:31N 29°34' W 090°43'1 1.1
2017-Dec-30 00:01N 29°34' W 090°43'2 4.8
2017-Dec-29 23:30N 29°37' W 090°42'2 4.8
2017-Dec-29 23:00N 29°36' W 090°40'0 0.0
2017-Dec-29 22:30N 29°36' W 090°40'0 0.0
2017-Dec-29 22:00N 29°36' W 090°40'0 0.0
2017-Dec-29 21:30N 29°36' W 090°40'0 0.0
2017-Dec-29 21:00N 29°36' W 090°40'0 0.0
2017-Dec-29 20:30N 29°36' W 090°40'2 4.2
2017-Dec-29 20:01N 29°37' W 090°42'3 5.5
2017-Dec-29 19:30N 29°34' W 090°43'1 1.0
2017-Dec-29 19:00N 29°34' W 090°43'0 0.0
2017-Dec-29 18:30N 29°34' W 090°43'0 0.0
2017-Dec-29 18:00N 29°34' W 090°43'0 0.0
2017-Dec-29 17:31N 29°34' W 090°43'0 0.0
2017-Dec-29 17:00N 29°34' W 090°43'0 0.0
2017-Dec-29 16:31N 29°34' W 090°43'0 0.0
2017-Dec-29 16:00N 29°34' W 090°43'0 0.1
2017-Dec-29 15:30N 29°34' W 090°43'0 0.1
2017-Dec-29 15:01N 29°34' W 090°43'0 0.2
2017-Dec-29 14:30N 29°34' W 090°43'0 0.1
2017-Dec-29 14:01N 29°34' W 090°43'0 0.0
2017-Dec-29 13:30N 29°34' W 090°43'0 0.0
2017-Dec-29 13:00N 29°34' W 090°43'0 0.0
2017-Dec-29 12:30N 29°34' W 090°43'0 0.0
2017-Dec-29 12:00N 29°34' W 090°43'0 0.0
2017-Dec-29 11:30N 29°34' W 090°43'0 0.0
2017-Dec-29 11:00N 29°34' W 090°43'0 0.0
2017-Dec-29 10:30N 29°34' W 090°43'0 0.0
2017-Dec-29 10:00N 29°34' W 090°43'0 0.0
2017-Dec-29 09:30N 29°34' W 090°43'0 0.3
2017-Dec-29 09:00N 29°34' W 090°43'1 2.3
2017-Dec-29 08:30N 29°34' W 090°44'1 1.2
2017-Dec-29 08:00N 29°34' W 090°45'2 4.1
2017-Dec-29 07:31N 29°32' W 090°46'62 4.8
2017-Dec-28 18:31N 29°51' W 091°54'0 6.1
2017-Dec-28 18:28N 29°51' W 091°55'3 6.2
2017-Dec-28 17:59N 29°50' W 091°58'3 6.1
2017-Dec-28 17:30N 29°49' W 092°01'3 5.3
2017-Dec-28 17:00N 29°48' W 092°04'3 5.5
2017-Dec-28 16:31N 29°47' W 092°07'3 5.5
2017-Dec-28 16:01N 29°47' W 092°10'2 4.6
2017-Dec-28 15:30N 29°47' W 092°13'2 4.7
2017-Dec-28 15:00N 29°48' W 092°15'2 4.4
2017-Dec-28 14:31N 29°49' W 092°17'2 3.2
2017-Dec-28 14:00N 29°50' W 092°19'0 0.0
2017-Dec-28 13:31N 29°50' W 092°19'0 0.0
2017-Dec-28 13:01N 29°50' W 092°19'0 0.0
2017-Dec-28 12:31N 29°50' W 092°19'0 0.0
2017-Dec-28 12:00N 29°50' W 092°19'0 0.0
2017-Dec-28 11:30N 29°50' W 092°19'0 0.0
2017-Dec-28 11:00N 29°50' W 092°19'0 0.0
2017-Dec-28 10:31N 29°50' W 092°19'0 0.0
2017-Dec-28 10:00N 29°50' W 092°19'0 0.0
2017-Dec-28 09:30N 29°50' W 092°19'0 0.0
2017-Dec-28 09:00N 29°50' W 092°19'0 0.0
2017-Dec-28 08:30N 29°50' W 092°19'0 0.0
2017-Dec-28 08:01N 29°50' W 092°19'0 0.0
2017-Dec-28 07:30N 29°50' W 092°19'0 0.0
2017-Dec-28 07:00N 29°50' W 092°19'0 0.0
2017-Dec-28 06:31N 29°50' W 092°19'0 0.0
2017-Dec-28 06:00N 29°50' W 092°19'0 0.1
2017-Dec-28 05:31N 29°50' W 092°19'0 0.1
2017-Dec-28 05:01N 29°50' W 092°19'0 0.0
2017-Dec-28 04:30N 29°50' W 092°19'0 0.0
2017-Dec-28 04:00N 29°50' W 092°19'0 0.0
2017-Dec-28 03:31N 29°50' W 092°19'0 0.0
2017-Dec-28 03:00N 29°50' W 092°19'0 0.0
2017-Dec-28 02:30N 29°50' W 092°19'0 0.0
2017-Dec-28 02:01N 29°50' W 092°19'0 0.0
2017-Dec-28 01:31N 29°50' W 092°19'0 0.0
2017-Dec-28 01:01N 29°50' W 092°19'0 0.2
2017-Dec-28 00:31N 29°50' W 092°19'0 0.0
2017-Dec-28 00:00N 29°50' W 092°19'0 0.1
2017-Dec-27 23:31N 29°50' W 092°19'0 0.0
2017-Dec-27 23:01N 29°50' W 092°19'0 0.0
2017-Dec-27 22:30N 29°50' W 092°19'0 0.0
2017-Dec-27 22:00N 29°50' W 092°19'0 0.0
2017-Dec-27 21:31N 29°50' W 092°19'0 0.0
2017-Dec-27 21:00N 29°50' W 092°19'0 0.0
2017-Dec-27 20:31N 29°50' W 092°19'0 0.0
2017-Dec-27 20:00N 29°50' W 092°19'0 0.0
2017-Dec-27 19:30N 29°50' W 092°19'0 0.0
2017-Dec-27 19:00N 29°50' W 092°19'0 0.0
2017-Dec-27 18:30N 29°50' W 092°19'0 0.0
2017-Dec-27 18:00N 29°50' W 092°19'0 0.0
2017-Dec-27 17:30N 29°50' W 092°19'0 0.1
2017-Dec-27 17:01N 29°50' W 092°19'0 0.0
2017-Dec-27 16:30N 29°50' W 092°19'0 0.0
2017-Dec-27 16:01N 29°50' W 092°19'0 0.0
2017-Dec-27 15:30N 29°50' W 092°19'0 0.0
2017-Dec-27 15:00N 29°50' W 092°19'0 0.0
2017-Dec-27 14:31N 29°50' W 092°19'0 0.0
2017-Dec-27 14:00N 29°50' W 092°19'0 0.0
2017-Dec-27 13:30N 29°50' W 092°19'0 0.0
2017-Dec-27 13:00N 29°50' W 092°19'0 0.0
2017-Dec-27 12:31N 29°50' W 092°19'0 0.0
2017-Dec-27 12:00N 29°50' W 092°19'0 0.0
2017-Dec-27 11:30N 29°50' W 092°19'0 0.0
2017-Dec-27 11:00N 29°50' W 092°19'0 0.0
2017-Dec-27 10:30N 29°50' W 092°19'0 0.0
2017-Dec-27 10:01N 29°50' W 092°19'0 0.0
2017-Dec-27 09:30N 29°50' W 092°19'0 0.0
2017-Dec-27 09:01N 29°50' W 092°19'0 0.0
2017-Dec-27 08:31N 29°50' W 092°19'0 0.0
2017-Dec-27 08:00N 29°50' W 092°19'0 0.0
2017-Dec-27 07:30N 29°50' W 092°19'0 0.1
2017-Dec-27 07:01N 29°50' W 092°19'2 4.3
2017-Dec-27 06:31N 29°51' W 092°21'38 5.5
2017-Dec-26 23:35N 29°56' W 093°05'1 6.0
2017-Dec-26 23:29N 29°56' W 093°05'3 5.4
2017-Dec-26 23:01N 29°56' W 093°08'3 5.1
2017-Dec-26 22:30N 29°57' W 093°11'3 6.0
2017-Dec-26 22:00N 29°60' W 093°13'3 5.3
2017-Dec-26 21:30N 30°02' W 093°15'2 4.8
2017-Dec-26 21:00N 30°04' W 093°16'2 3.6
2017-Dec-26 20:30N 30°05' W 093°18'1 1.1
2017-Dec-26 20:00N 30°06' W 093°18'1 1.6
2017-Dec-26 19:31N 30°06' W 093°19'0 0.0
2017-Dec-26 19:00N 30°06' W 093°19'0 0.1
2017-Dec-26 18:30N 30°06' W 093°19'1 2.0
2017-Dec-26 18:00N 30°06' W 093°19'3 5.3
2017-Dec-26 17:31N 30°04' W 093°21'3 5.6
2017-Dec-26 17:00N 30°04' W 093°25'3 5.8
2017-Dec-26 16:31N 30°04' W 093°28'3 6.0
2017-Dec-26 16:01N 30°04' W 093°31'3 6.0
2017-Dec-26 15:30N 30°04' W 093°35'3 5.8
2017-Dec-26 15:00N 30°04' W 093°38'3 6.0
2017-Dec-26 14:29N 30°04' W 093°42'70 5.1
2017-Dec-26 00:40N 29°28' W 094°51'2 9.5
2017-Dec-26 00:30N 29°30' W 094°52'4 8.9
2017-Dec-26 00:00N 29°33' W 094°55'5 9.1
2017-Dec-25 23:30N 29°37' W 094°58'5 9.2
2017-Dec-25 23:00N 29°42' W 094°60'4 8.0
2017-Dec-25 22:30N 29°44' W 095°03'3 0.8
2017-Dec-25 18:59N 29°47' W 095°05'3 6.4
2017-Dec-25 18:30N 29°44' W 095°03'4 8.9
2017-Dec-25 18:00N 29°41' W 094°59'4 8.8
2017-Dec-25 17:30N 29°37' W 094°57'5 9.9
2017-Dec-25 16:58N 29°33' W 094°54'  

Dump ship's entire track history